Main page
METAR-TAF:

METAR-TAF

Airports :

Seattle / Tacoma, Washington, United States

Seattle–Tacoma International Airport

latitude: 47-26-41N, longitude: 122-18-49W, elevation: 130 m

Current weather observation

The report was made 13 minutes ago, at 05:53 UTC
Calm wind
Temperature 13°C
Humidity 72%
Pressure 1037 hPa
Visibility: 16.1 km
Clear sky

METAR: KSEA 240553Z 00000KT 10SM CLR 13/08 A3061 RMK AO2 SLP372 T01280078 10178 20122 56010 $

Time: 23:06 (06:06 UTC)

Forecast

The report was made 46 minutes ago, at 05:20 UTC
Forecast valid from 24 at 06 UTC to 25 at 12 UTC
Wind 5 kt from the North/Northeast
Visibility: 10 km
Clear sky
From 24 at 1200 UTC
Wind 6 kt from the North/Northeast
Visibility: 10 km
Few clouds at a height of 600 ft
fog in vicinity
From 24 at 1800 UTC
Wind 5 kt from the North
Visibility: 10 km
Clear sky

TAF: KSEA 240520Z 2406/2512 02005KT P6SM SKC FM241200 02006KT P6SM VCFG FEW006 FM241800 35005KT P6SM SKC

Weather observations and forecasts of more than 4000 airports (METAR and TAF reports).

The available stations are represented by yellow and red dots on the map.

Hover mouse over dot to see the name of the station.

Then click to see weather observations and forecasts.

To change the map : click on the green buttons with a black cross to zoom in, on the green button with a dash to zoom out, or on the green arrows for adjacent maps.


METAR-TAF: